sensor_id;sensor_type;location;lat;lon;timestamp;P1;durP1;ratioP1;P2;durP2;ratioP2
45039;SDS011;30778;53.574;7.770;2022-11-20T00:00:24;11.93;;;5.10;;
45039;SDS011;30778;53.574;7.770;2022-11-20T00:02:49;19.15;;;9.65;;
45039;SDS011;30778;53.574;7.770;2022-11-20T00:05:15;24.80;;;11.50;;
45039;SDS011;30778;53.574;7.770;2022-11-20T00:07:40;22.17;;;9.25;;
45039;SDS011;30778;53.574;7.770;2022-11-20T00:10:06;19.80;;;7.32;;
45039;SDS011;30778;53.574;7.770;2022-11-20T00:12:31;8.38;;;4.07;;
45039;SDS011;30778;53.574;7.770;2022-11-20T00:14:59;7.47;;;3.33;;
45039;SDS011;30778;53.574;7.770;2022-11-20T00:17:25;5.13;;;3.17;;
45039;SDS011;30778;53.574;7.770;2022-11-20T00:19:50;7.47;;;3.38;;
45039;SDS011;30778;53.574;7.770;2022-11-20T00:22:16;8.95;;;2.58;;
45039;SDS011;30778;53.574;7.770;2022-11-20T00:24:41;6.88;;;2.95;;
45039;SDS011;30778;53.574;7.770;2022-11-20T00:27:07;7.65;;;3.13;;
45039;SDS011;30778;53.574;7.770;2022-11-20T00:29:35;5.53;;;2.78;;
45039;SDS011;30778;53.574;7.770;2022-11-20T00:32:00;3.85;;;2.25;;
45039;SDS011;30778;53.574;7.770;2022-11-20T00:34:26;5.50;;;2.85;;
45039;SDS011;30778;53.574;7.770;2022-11-20T00:36:51;4.95;;;2.75;;
45039;SDS011;30778;53.574;7.770;2022-11-20T00:39:19;8.60;;;3.17;;
45039;SDS011;30778;53.574;7.770;2022-11-20T00:41:44;6.53;;;3.60;;
45039;SDS011;30778;53.574;7.770;2022-11-20T00:44:09;5.57;;;2.40;;
45039;SDS011;30778;53.574;7.770;2022-11-20T00:46:35;4.30;;;2.63;;
45039;SDS011;30778;53.574;7.770;2022-11-20T00:49:00;5.95;;;2.42;;
45039;SDS011;30778;53.574;7.770;2022-11-20T00:51:26;4.45;;;3.08;;
45039;SDS011;30778;53.574;7.770;2022-11-20T00:53:54;5.45;;;2.60;;
45039;SDS011;30778;53.574;7.770;2022-11-20T00:56:20;6.25;;;2.38;;
45039;SDS011;30778;53.574;7.770;2022-11-20T00:58:46;4.07;;;2.30;;
45039;SDS011;30778;53.574;7.770;2022-11-20T01:01:17;4.32;;;2.58;;
45039;SDS011;30778;53.574;7.770;2022-11-20T01:03:45;4.65;;;1.58;;
45039;SDS011;30778;53.574;7.770;2022-11-20T01:06:21;4.72;;;1.60;;
45039;SDS011;30778;53.574;7.770;2022-11-20T01:08:48;2.72;;;1.55;;
45039;SDS011;30778;53.574;7.770;2022-11-20T01:11:16;2.72;;;1.38;;
45039;SDS011;30778;53.574;7.770;2022-11-20T01:13:46;1.83;;;1.17;;
45039;SDS011;30778;53.574;7.770;2022-11-20T01:16:14;5.32;;;1.08;;
45039;SDS011;30778;53.574;7.770;2022-11-20T01:18:43;3.20;;;1.23;;
45039;SDS011;30778;53.574;7.770;2022-11-20T01:21:17;2.15;;;0.98;;
45039;SDS011;30778;53.574;7.770;2022-11-20T01:23:44;2.33;;;1.00;;
45039;SDS011;30778;53.574;7.770;2022-11-20T01:26:11;2.67;;;0.70;;
45039;SDS011;30778;53.574;7.770;2022-11-20T01:28:38;2.47;;;1.10;;
45039;SDS011;30778;53.574;7.770;2022-11-20T01:34:02;1.00;;;0.40;;
45039;SDS011;30778;53.574;7.770;2022-11-20T01:36:40;1.00;;;0.40;;
45039;SDS011;30778;53.574;7.770;2022-11-20T01:39:10;3.13;;;0.43;;
45039;SDS011;30778;53.574;7.770;2022-11-20T01:41:38;3.73;;;0.60;;
45039;SDS011;30778;53.574;7.770;2022-11-20T01:47:08;2.38;;;0.55;;
45039;SDS011;30778;53.574;7.770;2022-11-20T01:49:38;2.60;;;0.50;;
45039;SDS011;30778;53.574;7.770;2022-11-20T01:52:11;0.77;;;0.28;;
45039;SDS011;30778;53.574;7.770;2022-11-20T01:54:46;0.88;;;0.38;;
45039;SDS011;30778;53.574;7.770;2022-11-20T01:57:17;2.28;;;0.75;;
45039;SDS011;30778;53.574;7.770;2022-11-20T01:59:47;1.00;;;0.50;;
45039;SDS011;30778;53.574;7.770;2022-11-20T02:02:21;1.17;;;0.57;;
45039;SDS011;30778;53.574;7.770;2022-11-20T02:04:49;2.05;;;0.52;;
45039;SDS011;30778;53.574;7.770;2022-11-20T02:07:19;1.38;;;0.47;;
45039;SDS011;30778;53.574;7.770;2022-11-20T02:09:46;2.30;;;0.57;;
45039;SDS011;30778;53.574;7.770;2022-11-20T02:12:11;1.75;;;0.60;;
45039;SDS011;30778;53.574;7.770;2022-11-20T02:14:56;5.07;;;1.15;;
45039;SDS011;30778;53.574;7.770;2022-11-20T02:17:23;2.65;;;0.73;;
45039;SDS011;30778;53.574;7.770;2022-11-20T02:19:49;3.30;;;0.98;;
45039;SDS011;30778;53.574;7.770;2022-11-20T02:22:19;3.83;;;1.17;;
45039;SDS011;30778;53.574;7.770;2022-11-20T02:24:50;2.08;;;1.20;;
45039;SDS011;30778;53.574;7.770;2022-11-20T02:27:16;3.65;;;1.33;;
45039;SDS011;30778;53.574;7.770;2022-11-20T02:29:47;5.85;;;1.52;;
45039;SDS011;30778;53.574;7.770;2022-11-20T02:32:48;2.97;;;0.90;;
45039;SDS011;30778;53.574;7.770;2022-11-20T02:37:46;3.05;;;1.38;;
45039;SDS011;30778;53.574;7.770;2022-11-20T02:40:14;1.92;;;0.90;;
45039;SDS011;30778;53.574;7.770;2022-11-20T02:42:40;3.03;;;1.15;;
45039;SDS011;30778;53.574;7.770;2022-11-20T02:45:06;6.10;;;1.98;;
45039;SDS011;30778;53.574;7.770;2022-11-20T02:47:32;5.90;;;1.80;;
45039;SDS011;30778;53.574;7.770;2022-11-20T02:49:57;4.50;;;2.08;;
45039;SDS011;30778;53.574;7.770;2022-11-20T02:52:24;2.33;;;1.02;;
45039;SDS011;30778;53.574;7.770;2022-11-20T02:54:50;2.58;;;1.40;;
45039;SDS011;30778;53.574;7.770;2022-11-20T02:57:19;6.60;;;1.85;;
45039;SDS011;30778;53.574;7.770;2022-11-20T02:59:48;5.15;;;2.40;;
45039;SDS011;30778;53.574;7.770;2022-11-20T03:02:13;4.18;;;1.88;;
45039;SDS011;30778;53.574;7.770;2022-11-20T03:04:41;2.85;;;1.58;;
45039;SDS011;30778;53.574;7.770;2022-11-20T03:07:07;3.22;;;0.98;;
45039;SDS011;30778;53.574;7.770;2022-11-20T03:09:33;2.60;;;1.30;;
45039;SDS011;30778;53.574;7.770;2022-11-20T03:11:59;2.55;;;1.08;;
45039;SDS011;30778;53.574;7.770;2022-11-20T03:14:24;4.65;;;1.38;;
45039;SDS011;30778;53.574;7.770;2022-11-20T03:16:50;3.20;;;0.98;;
45039;SDS011;30778;53.574;7.770;2022-11-20T03:19:16;2.90;;;1.33;;
45039;SDS011;30778;53.574;7.770;2022-11-20T03:21:41;3.97;;;1.20;;
45039;SDS011;30778;53.574;7.770;2022-11-20T03:24:07;8.30;;;1.50;;
45039;SDS011;30778;53.574;7.770;2022-11-20T03:26:32;4.80;;;1.30;;
45039;SDS011;30778;53.574;7.770;2022-11-20T03:28:59;3.15;;;1.35;;
45039;SDS011;30778;53.574;7.770;2022-11-20T03:31:29;2.72;;;1.00;;
45039;SDS011;30778;53.574;7.770;2022-11-20T03:33:56;3.65;;;1.13;;
45039;SDS011;30778;53.574;7.770;2022-11-20T03:36:24;4.43;;;1.65;;
45039;SDS011;30778;53.574;7.770;2022-11-20T03:38:50;2.58;;;1.48;;
45039;SDS011;30778;53.574;7.770;2022-11-20T03:41:22;2.42;;;2.00;;
45039;SDS011;30778;53.574;7.770;2022-11-20T03:44:02;5.47;;;1.67;;
45039;SDS011;30778;53.574;7.770;2022-11-20T03:46:30;2.88;;;1.65;;
45039;SDS011;30778;53.574;7.770;2022-11-20T03:48:56;6.05;;;2.38;;
45039;SDS011;30778;53.574;7.770;2022-11-20T03:51:22;6.63;;;3.10;;
45039;SDS011;30778;53.574;7.770;2022-11-20T03:53:50;5.72;;;2.83;;
45039;SDS011;30778;53.574;7.770;2022-11-20T03:56:26;7.25;;;3.20;;
45039;SDS011;30778;53.574;7.770;2022-11-20T03:58:56;8.40;;;3.30;;
45039;SDS011;30778;53.574;7.770;2022-11-20T04:01:44;6.20;;;2.78;;
45039;SDS011;30778;53.574;7.770;2022-11-20T04:04:08;5.00;;;2.83;;
45039;SDS011;30778;53.574;7.770;2022-11-20T04:06:35;6.68;;;3.00;;
45039;SDS011;30778;53.574;7.770;2022-11-20T04:09:02;5.82;;;2.25;;
45039;SDS011;30778;53.574;7.770;2022-11-20T04:11:32;4.93;;;2.58;;
45039;SDS011;30778;53.574;7.770;2022-11-20T04:14:01;6.95;;;3.17;;
45039;SDS011;30778;53.574;7.770;2022-11-20T04:16:29;5.20;;;2.33;;
45039;SDS011;30778;53.574;7.770;2022-11-20T04:18:57;4.20;;;2.33;;
45039;SDS011;30778;53.574;7.770;2022-11-20T04:21:24;8.27;;;3.08;;
45039;SDS011;30778;53.574;7.770;2022-11-20T04:23:51;4.57;;;2.45;;
45039;SDS011;30778;53.574;7.770;2022-11-20T04:26:21;6.32;;;2.00;;
45039;SDS011;30778;53.574;7.770;2022-11-20T04:28:47;4.22;;;2.42;;
45039;SDS011;30778;53.574;7.770;2022-11-20T04:31:14;3.22;;;1.92;;
45039;SDS011;30778;53.574;7.770;2022-11-20T04:33:42;3.60;;;2.50;;
45039;SDS011;30778;53.574;7.770;2022-11-20T04:36:11;5.22;;;2.20;;
45039;SDS011;30778;53.574;7.770;2022-11-20T04:38:38;4.63;;;1.00;;
45039;SDS011;30778;53.574;7.770;2022-11-20T04:41:05;4.10;;;1.90;;
45039;SDS011;30778;53.574;7.770;2022-11-20T04:43:34;6.30;;;2.47;;
45039;SDS011;30778;53.574;7.770;2022-11-20T04:46:00;4.40;;;2.00;;
45039;SDS011;30778;53.574;7.770;2022-11-20T04:48:26;5.80;;;2.25;;
45039;SDS011;30778;53.574;7.770;2022-11-20T04:50:53;3.72;;;1.80;;
45039;SDS011;30778;53.574;7.770;2022-11-20T04:53:19;3.10;;;1.80;;
45039;SDS011;30778;53.574;7.770;2022-11-20T04:55:46;2.97;;;1.42;;
45039;SDS011;30778;53.574;7.770;2022-11-20T04:58:11;3.13;;;1.52;;
45039;SDS011;30778;53.574;7.770;2022-11-20T05:00:37;3.03;;;1.70;;
45039;SDS011;30778;53.574;7.770;2022-11-20T05:03:03;3.70;;;1.63;;
45039;SDS011;30778;53.574;7.770;2022-11-20T05:05:29;5.40;;;2.10;;
45039;SDS011;30778;53.574;7.770;2022-11-20T05:07:57;2.85;;;1.77;;
45039;SDS011;30778;53.574;7.770;2022-11-20T05:10:24;6.10;;;2.03;;
45039;SDS011;30778;53.574;7.770;2022-11-20T05:12:50;2.88;;;1.00;;
45039;SDS011;30778;53.574;7.770;2022-11-20T05:15:16;2.55;;;1.25;;
45039;SDS011;30778;53.574;7.770;2022-11-20T05:17:46;9.63;;;2.35;;
45039;SDS011;30778;53.574;7.770;2022-11-20T05:20:14;5.75;;;1.50;;
45039;SDS011;30778;53.574;7.770;2022-11-20T05:22:39;8.50;;;2.03;;
45039;SDS011;30778;53.574;7.770;2022-11-20T05:25:05;2.83;;;1.33;;
45039;SDS011;30778;53.574;7.770;2022-11-20T05:27:31;2.92;;;1.35;;
45039;SDS011;30778;53.574;7.770;2022-11-20T05:29:56;4.55;;;1.80;;
45039;SDS011;30778;53.574;7.770;2022-11-20T05:32:21;3.60;;;1.27;;
45039;SDS011;30778;53.574;7.770;2022-11-20T05:34:52;3.45;;;1.52;;
45039;SDS011;30778;53.574;7.770;2022-11-20T05:37:17;2.47;;;1.35;;
45039;SDS011;30778;53.574;7.770;2022-11-20T05:39:43;4.38;;;1.73;;
45039;SDS011;30778;53.574;7.770;2022-11-20T05:42:11;2.47;;;1.63;;
45039;SDS011;30778;53.574;7.770;2022-11-20T05:44:55;3.72;;;1.65;;
45039;SDS011;30778;53.574;7.770;2022-11-20T05:47:21;3.22;;;1.05;;
45039;SDS011;30778;53.574;7.770;2022-11-20T05:49:49;4.95;;;2.08;;
45039;SDS011;30778;53.574;7.770;2022-11-20T05:52:14;8.18;;;3.08;;
45039;SDS011;30778;53.574;7.770;2022-11-20T05:54:40;10.45;;;3.75;;
45039;SDS011;30778;53.574;7.770;2022-11-20T05:57:06;7.93;;;3.40;;
45039;SDS011;30778;53.574;7.770;2022-11-20T05:59:31;4.20;;;2.45;;
45039;SDS011;30778;53.574;7.770;2022-11-20T06:01:56;4.10;;;1.83;;
45039;SDS011;30778;53.574;7.770;2022-11-20T06:04:22;4.72;;;2.28;;
45039;SDS011;30778;53.574;7.770;2022-11-20T06:06:50;3.67;;;1.70;;
45039;SDS011;30778;53.574;7.770;2022-11-20T06:09:15;3.15;;;1.65;;
45039;SDS011;30778;53.574;7.770;2022-11-20T06:11:40;2.33;;;1.10;;
45039;SDS011;30778;53.574;7.770;2022-11-20T06:14:06;2.70;;;1.42;;
45039;SDS011;30778;53.574;7.770;2022-11-20T06:16:31;4.03;;;1.85;;
45039;SDS011;30778;53.574;7.770;2022-11-20T06:18:57;2.15;;;1.30;;
45039;SDS011;30778;53.574;7.770;2022-11-20T06:21:22;2.95;;;1.80;;
45039;SDS011;30778;53.574;7.770;2022-11-20T06:23:48;4.15;;;1.98;;
45039;SDS011;30778;53.574;7.770;2022-11-20T06:26:16;4.57;;;1.70;;
45039;SDS011;30778;53.574;7.770;2022-11-20T06:28:43;6.95;;;1.58;;
45039;SDS011;30778;53.574;7.770;2022-11-20T06:31:10;4.57;;;1.92;;
45039;SDS011;30778;53.574;7.770;2022-11-20T06:33:39;2.72;;;1.42;;
45039;SDS011;30778;53.574;7.770;2022-11-20T06:36:05;4.93;;;1.88;;
45039;SDS011;30778;53.574;7.770;2022-11-20T06:38:31;4.28;;;1.67;;
45039;SDS011;30778;53.574;7.770;2022-11-20T06:40:56;3.30;;;1.45;;
45039;SDS011;30778;53.574;7.770;2022-11-20T06:43:22;3.33;;;1.23;;
45039;SDS011;30778;53.574;7.770;2022-11-20T06:45:52;3.50;;;1.27;;
45039;SDS011;30778;53.574;7.770;2022-11-20T06:48:20;3.72;;;1.00;;
45039;SDS011;30778;53.574;7.770;2022-11-20T06:50:47;5.13;;;0.82;;
45039;SDS011;30778;53.574;7.770;2022-11-20T06:53:12;2.58;;;0.73;;
45039;SDS011;30778;53.574;7.770;2022-11-20T06:55:41;2.60;;;0.68;;
45039;SDS011;30778;53.574;7.770;2022-11-20T06:58:10;1.27;;;0.57;;
45039;SDS011;30778;53.574;7.770;2022-11-20T07:00:36;2.10;;;0.88;;
45039;SDS011;30778;53.574;7.770;2022-11-20T07:03:02;1.38;;;0.40;;
45039;SDS011;30778;53.574;7.770;2022-11-20T07:05:28;1.35;;;0.45;;
45039;SDS011;30778;53.574;7.770;2022-11-20T07:07:55;1.73;;;0.65;;
45039;SDS011;30778;53.574;7.770;2022-11-20T07:10:21;1.95;;;0.68;;
45039;SDS011;30778;53.574;7.770;2022-11-20T07:12:50;1.83;;;0.63;;
45039;SDS011;30778;53.574;7.770;2022-11-20T07:15:20;1.60;;;0.60;;
45039;SDS011;30778;53.574;7.770;2022-11-20T07:17:49;1.80;;;0.75;;
45039;SDS011;30778;53.574;7.770;2022-11-20T07:20:14;2.92;;;0.88;;
45039;SDS011;30778;53.574;7.770;2022-11-20T07:22:41;1.33;;;0.40;;
45039;SDS011;30778;53.574;7.770;2022-11-20T07:25:07;1.75;;;0.68;;
45039;SDS011;30778;53.574;7.770;2022-11-20T07:27:33;1.73;;;0.45;;
45039;SDS011;30778;53.574;7.770;2022-11-20T07:29:59;2.22;;;0.73;;
45039;SDS011;30778;53.574;7.770;2022-11-20T07:32:25;3.58;;;0.60;;
45039;SDS011;30778;53.574;7.770;2022-11-20T07:34:53;2.10;;;0.75;;
45039;SDS011;30778;53.574;7.770;2022-11-20T07:37:20;3.15;;;1.00;;
45039;SDS011;30778;53.574;7.770;2022-11-20T07:39:45;1.55;;;0.50;;
45039;SDS011;30778;53.574;7.770;2022-11-20T07:42:11;2.40;;;0.52;;
45039;SDS011;30778;53.574;7.770;2022-11-20T07:44:38;4.95;;;1.15;;
45039;SDS011;30778;53.574;7.770;2022-11-20T07:47:04;2.22;;;0.65;;
45039;SDS011;30778;53.574;7.770;2022-11-20T07:49:30;1.65;;;0.70;;
45039;SDS011;30778;53.574;7.770;2022-11-20T07:51:55;1.95;;;0.70;;
45039;SDS011;30778;53.574;7.770;2022-11-20T07:54:21;1.48;;;0.73;;
45039;SDS011;30778;53.574;7.770;2022-11-20T07:56:47;1.85;;;0.90;;
45039;SDS011;30778;53.574;7.770;2022-11-20T07:59:13;3.05;;;1.13;;
45039;SDS011;30778;53.574;7.770;2022-11-20T08:01:39;4.15;;;1.30;;
45039;SDS011;30778;53.574;7.770;2022-11-20T08:04:05;3.38;;;1.17;;
45039;SDS011;30778;53.574;7.770;2022-11-20T08:06:31;2.97;;;1.40;;
45039;SDS011;30778;53.574;7.770;2022-11-20T08:08:57;3.90;;;2.03;;
45039;SDS011;30778;53.574;7.770;2022-11-20T08:11:22;2.83;;;1.45;;
45039;SDS011;30778;53.574;7.770;2022-11-20T08:14:11;2.33;;;1.38;;
45039;SDS011;30778;53.574;7.770;2022-11-20T08:16:37;5.55;;;3.05;;
45039;SDS011;30778;53.574;7.770;2022-11-20T08:19:07;7.03;;;2.53;;
45039;SDS011;30778;53.574;7.770;2022-11-20T08:21:33;2.75;;;1.52;;
45039;SDS011;30778;53.574;7.770;2022-11-20T08:23:58;6.80;;;2.45;;
45039;SDS011;30778;53.574;7.770;2022-11-20T08:26:24;5.20;;;2.40;;
45039;SDS011;30778;53.574;7.770;2022-11-20T08:28:54;4.68;;;2.58;;
45039;SDS011;30778;53.574;7.770;2022-11-20T08:33:48;4.15;;;2.45;;
45039;SDS011;30778;53.574;7.770;2022-11-20T08:36:14;7.68;;;2.33;;
45039;SDS011;30778;53.574;7.770;2022-11-20T08:38:40;4.43;;;2.58;;
45039;SDS011;30778;53.574;7.770;2022-11-20T08:41:05;5.15;;;2.47;;
45039;SDS011;30778;53.574;7.770;2022-11-20T08:43:51;4.68;;;1.92;;
45039;SDS011;30778;53.574;7.770;2022-11-20T08:46:31;3.17;;;1.65;;
45039;SDS011;30778;53.574;7.770;2022-11-20T08:49:06;2.92;;;1.90;;
45039;SDS011;30778;53.574;7.770;2022-11-20T08:51:34;9.23;;;3.33;;
45039;SDS011;30778;53.574;7.770;2022-11-20T08:54:02;6.38;;;3.33;;
45039;SDS011;30778;53.574;7.770;2022-11-20T08:56:29;6.22;;;2.40;;
45039;SDS011;30778;53.574;7.770;2022-11-20T08:58:54;4.45;;;2.20;;
45039;SDS011;30778;53.574;7.770;2022-11-20T09:01:20;4.93;;;1.80;;
45039;SDS011;30778;53.574;7.770;2022-11-20T09:03:48;5.90;;;2.30;;
45039;SDS011;30778;53.574;7.770;2022-11-20T09:06:14;5.22;;;1.90;;
45039;SDS011;30778;53.574;7.770;2022-11-20T09:08:39;3.83;;;1.50;;
45039;SDS011;30778;53.574;7.770;2022-11-20T09:11:05;5.75;;;2.38;;
45039;SDS011;30778;53.574;7.770;2022-11-20T09:13:31;10.25;;;5.28;;
45039;SDS011;30778;53.574;7.770;2022-11-20T09:16:03;6.15;;;3.28;;
45039;SDS011;30778;53.574;7.770;2022-11-20T09:18:32;2.95;;;1.73;;
45039;SDS011;30778;53.574;7.770;2022-11-20T09:20:59;3.80;;;1.80;;
45039;SDS011;30778;53.574;7.770;2022-11-20T09:23:25;6.32;;;1.67;;
45039;SDS011;30778;53.574;7.770;2022-11-20T09:25:56;5.13;;;1.92;;
45039;SDS011;30778;53.574;7.770;2022-11-20T09:28:25;8.15;;;2.35;;
45039;SDS011;30778;53.574;7.770;2022-11-20T09:30:51;5.18;;;2.10;;
45039;SDS011;30778;53.574;7.770;2022-11-20T09:33:16;4.30;;;1.83;;
45039;SDS011;30778;53.574;7.770;2022-11-20T09:35:42;3.83;;;1.77;;
45039;SDS011;30778;53.574;7.770;2022-11-20T09:38:09;3.25;;;1.80;;
45039;SDS011;30778;53.574;7.770;2022-11-20T09:40:37;3.70;;;1.63;;
45039;SDS011;30778;53.574;7.770;2022-11-20T09:54:22;5.53;;;2.85;;
45039;SDS011;30778;53.574;7.770;2022-11-20T09:57:00;4.65;;;1.80;;
45039;SDS011;30778;53.574;7.770;2022-11-20T10:02:15;3.90;;;2.42;;
45039;SDS011;30778;53.574;7.770;2022-11-20T10:04:47;4.22;;;2.78;;
45039;SDS011;30778;53.574;7.770;2022-11-20T10:07:26;3.25;;;2.40;;
45039;SDS011;30778;53.574;7.770;2022-11-20T10:10:00;5.47;;;2.55;;
45039;SDS011;30778;53.574;7.770;2022-11-20T10:15:53;3.90;;;1.70;;
45039;SDS011;30778;53.574;7.770;2022-11-20T10:26:31;5.07;;;2.03;;
45039;SDS011;30778;53.574;7.770;2022-11-20T10:29:14;3.38;;;2.13;;
45039;SDS011;30778;53.574;7.770;2022-11-20T10:31:53;4.63;;;2.85;;
45039;SDS011;30778;53.574;7.770;2022-11-20T10:34:44;7.50;;;3.60;;
45039;SDS011;30778;53.574;7.770;2022-11-20T10:37:23;11.15;;;6.53;;
45039;SDS011;30778;53.574;7.770;2022-11-20T10:40:01;4.55;;;2.63;;
45039;SDS011;30778;53.574;7.770;2022-11-20T10:42:44;3.63;;;2.25;;
45039;SDS011;30778;53.574;7.770;2022-11-20T10:48:10;6.25;;;2.70;;
45039;SDS011;30778;53.574;7.770;2022-11-20T10:50:40;3.85;;;2.10;;
45039;SDS011;30778;53.574;7.770;2022-11-20T10:53:22;2.20;;;1.70;;
45039;SDS011;30778;53.574;7.770;2022-11-20T10:55:58;6.03;;;2.13;;
45039;SDS011;30778;53.574;7.770;2022-11-20T10:58:39;8.40;;;3.22;;
45039;SDS011;30778;53.574;7.770;2022-11-20T11:01:15;4.53;;;2.80;;
45039;SDS011;30778;53.574;7.770;2022-11-20T11:03:43;4.47;;;2.53;;
45039;SDS011;30778;53.574;7.770;2022-11-20T11:06:43;5.35;;;2.60;;
45039;SDS011;30778;53.574;7.770;2022-11-20T11:09:09;4.63;;;2.42;;
45039;SDS011;30778;53.574;7.770;2022-11-20T11:11:42;8.55;;;2.53;;
45039;SDS011;30778;53.574;7.770;2022-11-20T11:14:09;5.13;;;3.05;;
45039;SDS011;30778;53.574;7.770;2022-11-20T11:16:56;6.38;;;2.75;;
45039;SDS011;30778;53.574;7.770;2022-11-20T11:19:23;6.43;;;3.00;;
45039;SDS011;30778;53.574;7.770;2022-11-20T11:21:53;4.45;;;3.20;;
45039;SDS011;30778;53.574;7.770;2022-11-20T11:24:21;5.25;;;3.15;;
45039;SDS011;30778;53.574;7.770;2022-11-20T11:27:01;6.95;;;2.78;;
45039;SDS011;30778;53.574;7.770;2022-11-20T11:29:32;4.47;;;2.22;;
45039;SDS011;30778;53.574;7.770;2022-11-20T11:32:08;5.03;;;2.55;;
45039;SDS011;30778;53.574;7.770;2022-11-20T11:34:37;7.43;;;2.60;;
45039;SDS011;30778;53.574;7.770;2022-11-20T11:37:03;5.82;;;3.00;;
45039;SDS011;30778;53.574;7.770;2022-11-20T11:39:30;6.80;;;2.70;;
45039;SDS011;30778;53.574;7.770;2022-11-20T11:41:59;4.00;;;2.42;;
45039;SDS011;30778;53.574;7.770;2022-11-20T11:44:32;4.30;;;1.70;;
45039;SDS011;30778;53.574;7.770;2022-11-20T11:52:54;5.00;;;2.85;;
45039;SDS011;30778;53.574;7.770;2022-11-20T11:55:41;5.72;;;3.50;;
45039;SDS011;30778;53.574;7.770;2022-11-20T12:06:44;4.10;;;2.80;;
45039;SDS011;30778;53.574;7.770;2022-11-20T12:09:12;6.10;;;2.55;;
45039;SDS011;30778;53.574;7.770;2022-11-20T12:11:45;6.82;;;3.10;;
45039;SDS011;30778;53.574;7.770;2022-11-20T12:14:22;5.68;;;3.63;;
45039;SDS011;30778;53.574;7.770;2022-11-20T12:16:56;7.10;;;4.35;;
45039;SDS011;30778;53.574;7.770;2022-11-20T12:19:22;6.18;;;3.85;;
45039;SDS011;30778;53.574;7.770;2022-11-20T12:24:32;8.75;;;4.53;;
45039;SDS011;30778;53.574;7.770;2022-11-20T12:30:04;5.80;;;3.92;;
45039;SDS011;30778;53.574;7.770;2022-11-20T12:38:26;4.80;;;3.15;;
45039;SDS011;30778;53.574;7.770;2022-11-20T12:52:53;7.50;;;3.58;;
45039;SDS011;30778;53.574;7.770;2022-11-20T12:55:28;5.85;;;3.25;;
45039;SDS011;30778;53.574;7.770;2022-11-20T12:58:05;7.15;;;4.00;;
45039;SDS011;30778;53.574;7.770;2022-11-20T13:00:49;6.88;;;3.30;;
45039;SDS011;30778;53.574;7.770;2022-11-20T13:06:20;6.22;;;3.70;;
45039;SDS011;30778;53.574;7.770;2022-11-20T13:08:52;6.00;;;3.63;;
45039;SDS011;30778;53.574;7.770;2022-11-20T13:14:03;11.82;;;4.70;;
45039;SDS011;30778;53.574;7.770;2022-11-20T13:16:49;8.60;;;5.18;;
45039;SDS011;30778;53.574;7.770;2022-11-20T13:19:22;8.82;;;4.93;;
45039;SDS011;30778;53.574;7.770;2022-11-20T13:21:50;11.52;;;5.07;;
45039;SDS011;30778;53.574;7.770;2022-11-20T13:26:44;7.82;;;4.80;;
45039;SDS011;30778;53.574;7.770;2022-11-20T13:29:11;7.57;;;3.80;;
45039;SDS011;30778;53.574;7.770;2022-11-20T13:31:42;10.82;;;4.38;;
45039;SDS011;30778;53.574;7.770;2022-11-20T13:34:11;9.63;;;4.20;;
45039;SDS011;30778;53.574;7.770;2022-11-20T13:36:50;4.53;;;3.85;;
45039;SDS011;30778;53.574;7.770;2022-11-20T13:39:26;6.60;;;4.55;;
45039;SDS011;30778;53.574;7.770;2022-11-20T13:41:56;8.05;;;4.88;;
45039;SDS011;30778;53.574;7.770;2022-11-20T13:44:39;8.20;;;4.32;;
45039;SDS011;30778;53.574;7.770;2022-11-20T13:50:13;6.55;;;4.07;;
45039;SDS011;30778;53.574;7.770;2022-11-20T13:58:15;8.32;;;4.90;;
45039;SDS011;30778;53.574;7.770;2022-11-20T14:01:08;10.38;;;5.30;;
45039;SDS011;30778;53.574;7.770;2022-11-20T14:03:36;8.10;;;4.78;;
45039;SDS011;30778;53.574;7.770;2022-11-20T14:06:10;9.48;;;5.32;;
45039;SDS011;30778;53.574;7.770;2022-11-20T14:08:40;8.65;;;4.90;;
45039;SDS011;30778;53.574;7.770;2022-11-20T14:11:15;7.70;;;4.70;;
45039;SDS011;30778;53.574;7.770;2022-11-20T14:16:19;7.68;;;3.58;;
45039;SDS011;30778;53.574;7.770;2022-11-20T14:18:45;7.07;;;4.60;;
45039;SDS011;30778;53.574;7.770;2022-11-20T14:21:11;9.77;;;4.88;;
45039;SDS011;30778;53.574;7.770;2022-11-20T14:23:36;9.20;;;4.43;;
45039;SDS011;30778;53.574;7.770;2022-11-20T14:26:03;9.55;;;5.10;;
45039;SDS011;30778;53.574;7.770;2022-11-20T14:28:30;24.73;;;8.82;;
45039;SDS011;30778;53.574;7.770;2022-11-20T14:30:56;11.70;;;6.40;;
45039;SDS011;30778;53.574;7.770;2022-11-20T14:33:23;8.43;;;5.28;;
45039;SDS011;30778;53.574;7.770;2022-11-20T14:35:51;8.13;;;4.13;;
45039;SDS011;30778;53.574;7.770;2022-11-20T14:38:24;10.50;;;4.82;;
45039;SDS011;30778;53.574;7.770;2022-11-20T14:40:51;6.40;;;4.45;;
45039;SDS011;30778;53.574;7.770;2022-11-20T14:43:26;9.27;;;4.47;;
45039;SDS011;30778;53.574;7.770;2022-11-20T14:49:16;8.60;;;4.13;;
45039;SDS011;30778;53.574;7.770;2022-11-20T14:51:27;6.60;;;4.25;;
45039;SDS011;30778;53.574;7.770;2022-11-20T14:56:52;8.27;;;4.53;;
45039;SDS011;30778;53.574;7.770;2022-11-20T14:59:23;8.20;;;4.90;;
45039;SDS011;30778;53.574;7.770;2022-11-20T15:02:05;10.35;;;5.30;;
45039;SDS011;30778;53.574;7.770;2022-11-20T15:04:44;6.05;;;3.95;;
45039;SDS011;30778;53.574;7.770;2022-11-20T15:07:10;9.50;;;4.95;;
45039;SDS011;30778;53.574;7.770;2022-11-20T15:31:32;11.57;;;6.40;;
45039;SDS011;30778;53.574;7.770;2022-11-20T15:42:25;9.15;;;5.28;;
45039;SDS011;30778;53.574;7.770;2022-11-20T15:46:02;15.00;;;6.85;;
45039;SDS011;30778;53.574;7.770;2022-11-20T15:53:12;8.30;;;4.40;;
45039;SDS011;30778;53.574;7.770;2022-11-20T16:12:09;7.53;;;4.82;;
45039;SDS011;30778;53.574;7.770;2022-11-20T16:49:14;13.15;;;5.63;;
45039;SDS011;30778;53.574;7.770;2022-11-20T16:51:40;11.35;;;5.43;;
45039;SDS011;30778;53.574;7.770;2022-11-20T17:13:25;17.00;;;6.10;;
45039;SDS011;30778;53.574;7.770;2022-11-20T17:16:57;7.78;;;4.38;;
45039;SDS011;30778;53.574;7.770;2022-11-20T17:24:48;10.50;;;4.68;;
45039;SDS011;30778;53.574;7.770;2022-11-20T17:39:06;7.65;;;4.57;;
45039;SDS011;30778;53.574;7.770;2022-11-20T17:58:37;8.38;;;5.65;;
45039;SDS011;30778;53.574;7.770;2022-11-20T18:09:47;15.80;;;7.13;;
45039;SDS011;30778;53.574;7.770;2022-11-20T18:12:14;13.85;;;6.90;;
45039;SDS011;30778;53.574;7.770;2022-11-20T18:14:40;9.68;;;5.13;;
45039;SDS011;30778;53.574;7.770;2022-11-20T18:17:08;11.90;;;5.13;;
45039;SDS011;30778;53.574;7.770;2022-11-20T18:19:37;9.40;;;5.93;;
45039;SDS011;30778;53.574;7.770;2022-11-20T18:22:04;10.57;;;6.20;;
45039;SDS011;30778;53.574;7.770;2022-11-20T18:24:32;10.32;;;6.47;;
45039;SDS011;30778;53.574;7.770;2022-11-20T18:26:58;12.50;;;6.95;;
45039;SDS011;30778;53.574;7.770;2022-11-20T18:29:24;9.63;;;5.85;;
45039;SDS011;30778;53.574;7.770;2022-11-20T18:31:51;10.63;;;5.70;;
45039;SDS011;30778;53.574;7.770;2022-11-20T18:34:16;9.95;;;6.15;;
45039;SDS011;30778;53.574;7.770;2022-11-20T18:36:42;11.90;;;6.63;;
45039;SDS011;30778;53.574;7.770;2022-11-20T18:39:10;20.65;;;11.43;;
45039;SDS011;30778;53.574;7.770;2022-11-20T18:41:37;54.67;;;31.63;;
45039;SDS011;30778;53.574;7.770;2022-11-20T18:44:22;15.18;;;7.57;;
45039;SDS011;30778;53.574;7.770;2022-11-20T18:47:23;15.80;;;7.80;;
45039;SDS011;30778;53.574;7.770;2022-11-20T18:49:52;28.83;;;16.02;;
45039;SDS011;30778;53.574;7.770;2022-11-20T18:52:39;21.00;;;13.98;;
45039;SDS011;30778;53.574;7.770;2022-11-20T18:55:06;16.55;;;9.57;;
45039;SDS011;30778;53.574;7.770;2022-11-20T18:57:32;15.90;;;8.02;;
45039;SDS011;30778;53.574;7.770;2022-11-20T18:59:58;13.70;;;8.23;;
45039;SDS011;30778;53.574;7.770;2022-11-20T19:02:24;17.60;;;8.23;;
45039;SDS011;30778;53.574;7.770;2022-11-20T19:04:49;14.52;;;8.50;;
45039;SDS011;30778;53.574;7.770;2022-11-20T19:07:15;17.50;;;10.05;;
45039;SDS011;30778;53.574;7.770;2022-11-20T19:09:42;14.48;;;8.95;;